MSC Bremen — A8LK7 — position and weather

sailwx.info

Track history (hours):
 
Tides and Currents Weather Stations Pressure Air Temp Water Temp Dewpoint Dewpoint Depression Visibility Wind Speed Wind Dir Waves Ship Positions

MSC Bremen

Last reported at 2016-May-24 21:31 UTC. Time now 2016-May-24 21:32 UTC.
Position N 53°34' E 008°32'.

Length 294 m; ; draft 13.7 m.

Type: Ship (hazmat cat A). MMSI: 636091270.

Date/timePositionNaut miles runAvg speedWind from/ knotsBaromVisibWave heightAir tempDewpointWater temp
2016-May-24 21:31N 53°34' E 008°32'0 0.0
2016-May-24 20:31N 53°34' E 008°32'0 0.0
2016-May-24 19:31N 53°34' E 008°32'0 0.0
2016-May-24 18:31N 53°34' E 008°32'0 0.0
2016-May-24 17:31N 53°34' E 008°32'0 0.0
2016-May-24 16:31N 53°34' E 008°32'0 0.0
2016-May-24 15:33N 53°34' E 008°32'8 8.3
2016-May-24 14:33N 53°40' E 008°22'1818.1
2016-May-24 13:33N 53°51' E 007°58'10 9.5
2016-May-24 12:33N 53°52' E 007°42'1 1.3
2016-May-24 11:34N 53°53' E 007°40'1 0.5
2016-May-24 10:33N 53°53' E 007°41'5 4.6
2016-May-24 09:33N 53°55' E 007°34'9 9.2
2016-May-24 08:33N 53°52' E 007°19'10 9.9
2016-May-24 07:33N 53°50' E 007°02'10 9.6
2016-May-24 06:33N 53°48' E 006°47'1918.5
2016-May-24 05:33N 53°44' E 006°16'1919.1
2016-May-24 04:33N 53°38' E 005°46'1918.6
2016-May-24 03:33N 53°32' E 005°16'1818.2
2016-May-24 02:33N 53°25' E 004°47'1917.6
2016-May-24 01:29N 53°09' E 004°30'1718.0
2016-May-24 00:31N 52°54' E 004°16'1817.8
2016-May-23 23:32N 52°40' E 003°59'1818.2
2016-May-23 22:33N 52°29' E 003°36'2018.5
2016-May-23 21:28N 52°27' E 003°03'1718.4
2016-May-23 20:33N 52°19' E 002°39'1818.1
2016-May-23 19:33N 52°12' E 002°12'1817.7
2016-May-23 18:33N 51°59' E 001°52'1212.2
2016-May-23 17:33N 51°52' E 001°36'1110.7
2016-May-23 16:34N 51°55' E 001°19'2 2.2
2016-May-23 15:33N 51°58' E 001°18'0 0.0
2016-May-23 14:33N 51°58' E 001°18'0 0.0
2016-May-23 13:33N 51°58' E 001°18'0 0.0
2016-May-23 12:32N 51°58' E 001°18'0 0.0
2016-May-23 11:32N 51°58' E 001°18'0 0.0
2016-May-23 10:32N 51°58' E 001°18'0 0.0
2016-May-23 09:33N 51°58' E 001°18'0 0.0
2016-May-23 08:33N 51°58' E 001°18'0 0.0
2016-May-23 07:33N 51°58' E 001°18'0 0.0
2016-May-23 06:33N 51°58' E 001°18'0 0.0
2016-May-23 05:33N 51°58' E 001°18'0 0.0
2016-May-23 04:33N 51°58' E 001°18'0 0.0
2016-May-23 03:33N 51°58' E 001°18'0 0.0
2016-May-23 02:34N 51°58' E 001°18'0 0.0
2016-May-23 01:34N 51°58' E 001°18'0 0.0
2016-May-23 00:34N 51°58' E 001°18'0 0.0
2016-May-22 23:33N 51°58' E 001°18'0 0.0
2016-May-22 22:34N 51°58' E 001°18'0 0.0
2016-May-22 21:34N 51°58' E 001°18'0 0.0
2016-May-22 20:33N 51°58' E 001°18'0 0.0
2016-May-22 19:34N 51°58' E 001°18'0 0.0
2016-May-22 18:34N 51°58' E 001°18'0 0.0
2016-May-22 17:33N 51°58' E 001°18'6 5.8
2016-May-22 16:33N 51°56' E 001°27'1110.6
2016-May-22 15:33N 51°52' E 001°43'4 3.8
2016-May-22 14:34N 51°50' E 001°49'1616.4
2016-May-22 13:34N 51°34' E 001°52'1414.0
2016-May-22 12:34N 51°21' E 001°59'1717.0
2016-May-22 11:34N 51°08' E 001°42'1716.7
2016-May-22 10:34N 50°54' E 001°26'1515.3
2016-May-22 09:34N 50°40' E 001°16'2619.9
2016-May-22 08:15N 50°28' E 000°40'1521.3
2016-May-22 07:34N 50°22' E 000°18'1716.9
2016-May-22 06:34N 50°12' W 000°03'1514.7
2016-May-22 05:33N 49°58' W 000°10'1414.5
2016-May-22 04:33N 49°44' W 000°12'1313.2
2016-May-22 03:33N 49°31' W 000°05'9 9.2
2016-May-22 02:33N 49°28' E 000°08'0 0.0
2016-May-22 01:33N 49°28' E 000°08'0 0.0
2016-May-22 00:33N 49°28' E 000°08'0 0.0
2016-May-21 23:33N 49°28' E 000°08'0 0.0
2016-May-21 22:33N 49°28' E 000°08'0 0.0
2016-May-21 21:33N 49°28' E 000°08'0 0.0
2016-May-21 20:33N 49°28' E 000°08'0 0.0
2016-May-21 19:33N 49°28' E 000°08'0 0.0
2016-May-21 18:33N 49°28' E 000°08'0 0.0
2016-May-21 17:33N 49°28' E 000°08'0 0.0
2016-May-21 16:33N 49°28' E 000°08'0 0.0
2016-May-21 15:33N 49°28' E 000°08'0 0.0
2016-May-21 14:33N 49°28' E 000°08'0 0.0
2016-May-21 13:33N 49°28' E 000°08'0 0.0
2016-May-21 12:33N 49°28' E 000°08'4 4.4
2016-May-21 11:33N 49°30' E 000°02'1010.3
2016-May-21 10:33N 49°33' W 000°13'7 7.3
2016-May-21 09:33N 49°34' W 000°24'4 4.5
2016-May-21 08:33N 49°38' W 000°26'1312.7
2016-May-21 07:33N 49°46' W 000°41'1818.2
2016-May-21 06:33N 49°52' W 001°08'1818.5
2016-May-21 05:33N 49°58' W 001°35'4018.2
2016-May-21 03:20N 49°51' W 002°37'1417.8
2016-May-21 02:33N 49°46' W 002°57'1717.5
2016-May-21 01:34N 49°38' W 003°21'7017.4
2016-May-20 21:32N 49°03' W 004°54'1717.2
2016-May-20 20:34N 48°56' W 005°17'14618.2
2016-May-20 12:31N 46°50' W 007°08'46519.1
2016-May-19 12:09N 39°20' W 009°51'1220.1
2016-May-19 11:33N 39°08' W 009°50'2020.0
2016-May-19 10:33N 38°48' W 009°51'1919.2
2016-May-19 09:33N 38°30' W 009°44'2019.9
2016-May-19 08:33N 38°14' W 009°30'2019.7
2016-May-19 07:33N 37°59' W 009°13'1818.1
2016-May-19 06:33N 37°53' W 008°51'3 2.7
2016-May-19 05:33N 37°56' W 008°51'0 0.0
2016-May-19 04:33N 37°56' W 008°51'0 0.0
2016-May-19 03:33N 37°56' W 008°51'0 0.0
2016-May-19 02:33N 37°56' W 008°51'0 0.0
2016-May-19 01:33N 37°56' W 008°51'0 0.0
2016-May-19 00:33N 37°56' W 008°51'0 0.0
2016-May-18 23:33N 37°56' W 008°51'0 0.0
2016-May-18 22:33N 37°56' W 008°51'0 0.0
2016-May-18 21:33N 37°56' W 008°51'0 0.0
2016-May-18 20:33N 37°56' W 008°51'0 0.0
2016-May-18 19:33N 37°56' W 008°51'0 0.0
2016-May-18 18:33N 37°56' W 008°51'0 0.0
2016-May-18 17:34N 37°56' W 008°51'3 2.6
2016-May-18 16:33N 37°53' W 008°50'3 3.5
2016-May-18 15:33N 37°51' W 008°53'7 7.4
2016-May-18 14:33N 37°44' W 008°57'2 1.8
2016-May-18 13:33N 37°43' W 008°58'1312.9
2016-May-18 12:33N 37°31' W 009°05'1514.5
2016-May-18 11:33N 37°17' W 009°12'1514.6
2016-May-18 10:33N 37°04' W 009°19'1413.2
2016-May-18 09:29N 36°50' W 009°16'1714.4
2016-May-18 08:18N 36°41' W 008°57'1114.6
2016-May-18 07:33N 36°38' W 008°45'1514.9
2016-May-18 06:33N 36°33' W 008°27'1515.0
2016-May-18 05:33N 36°29' W 008°09'1515.0
2016-May-18 04:33N 36°24' W 007°52'1615.6
2016-May-18 03:33N 36°18' W 007°34'1615.5
2016-May-18 02:33N 36°13' W 007°15'8114.7
2016-May-17 21:04N 35°58' W 005°37'612.1
2016-May-17 20:33N 35°59' W 005°30'1111.4
2016-May-17 19:33N 36°02' W 005°16'18615.3
2016-May-17 07:22N 36°27' W 001°27'1315.6
2016-May-17 06:34N 36°28' W 001°12'1615.5
2016-May-17 05:32N 36°29' W 000°52'1515.5
2016-May-17 04:33N 36°30' W 000°33'1615.8
2016-May-17 03:34N 36°33' W 000°14'1615.7
2016-May-17 02:33N 36°36' E 000°05'1615.9
2016-May-17 01:33N 36°38' E 000°25'1615.5
2016-May-17 00:33N 36°42' E 000°44'1515.2
2016-May-16 23:34N 36°44' E 001°02'1514.9
2016-May-16 22:34N 36°47' E 001°20'1514.6
2016-May-16 21:33N 36°50' E 001°38'1514.8
2016-May-16 20:33N 36°53' E 001°56'3115.1
2016-May-16 18:29N 36°59' E 002°35'1415.1
2016-May-16 17:33N 37°01' E 002°52'38716.0
2016-May-15 17:24N 37°32' E 010°57'3215.1
2016-May-15 15:15N 37°16' E 011°33'10915.9
2016-May-15 08:22N 36°35' E 013°40'1315.7
2016-May-15 07:33N 36°32' E 013°55'1615.8
2016-May-15 06:33N 36°27' E 014°14'1616.0
2016-May-15 05:33N 36°22' E 014°33'1615.5
2016-May-15 04:33N 36°17' E 014°51'  
Track history (hours):
 
Tides and Currents Weather Stations Pressure Air Temp Water Temp Dewpoint Dewpoint Depression Visibility Wind Speed Wind Dir Waves Ship Positions

MSC Bremen

Last reported at 2016-May-24 21:31 UTC. Time now 2016-May-24 21:32 UTC.
Position N 53°34' E 008°32'.

Length 294 m; ; draft 13.7 m.

Type: Ship (hazmat cat A). MMSI: 636091270.

Date/timePositionNaut miles runAvg speedWind from/ knotsBaromVisibWave heightAir tempDewpointWater temp
2016-May-24 21:31N 53°34' E 008°32'0 0.0
2016-May-24 20:31N 53°34' E 008°32'0 0.0
2016-May-24 19:31N 53°34' E 008°32'0 0.0
2016-May-24 18:31N 53°34' E 008°32'0 0.0
2016-May-24 17:31N 53°34' E 008°32'0 0.0
2016-May-24 16:31N 53°34' E 008°32'0 0.0
2016-May-24 15:33N 53°34' E 008°32'8 8.3
2016-May-24 14:33N 53°40' E 008°22'1818.1
2016-May-24 13:33N 53°51' E 007°58'10 9.5
2016-May-24 12:33N 53°52' E 007°42'1 1.3
2016-May-24 11:34N 53°53' E 007°40'1 0.5
2016-May-24 10:33N 53°53' E 007°41'5 4.6
2016-May-24 09:33N 53°55' E 007°34'9 9.2
2016-May-24 08:33N 53°52' E 007°19'10 9.9
2016-May-24 07:33N 53°50' E 007°02'10 9.6
2016-May-24 06:33N 53°48' E 006°47'1918.5
2016-May-24 05:33N 53°44' E 006°16'1919.1
2016-May-24 04:33N 53°38' E 005°46'1918.6
2016-May-24 03:33N 53°32' E 005°16'1818.2
2016-May-24 02:33N 53°25' E 004°47'1917.6
2016-May-24 01:29N 53°09' E 004°30'1718.0
2016-May-24 00:31N 52°54' E 004°16'1817.8
2016-May-23 23:32N 52°40' E 003°59'1818.2
2016-May-23 22:33N 52°29' E 003°36'2018.5
2016-May-23 21:28N 52°27' E 003°03'1718.4
2016-May-23 20:33N 52°19' E 002°39'1818.1
2016-May-23 19:33N 52°12' E 002°12'1817.7
2016-May-23 18:33N 51°59' E 001°52'1212.2
2016-May-23 17:33N 51°52' E 001°36'1110.7
2016-May-23 16:34N 51°55' E 001°19'2 2.2
2016-May-23 15:33N 51°58' E 001°18'0 0.0
2016-May-23 14:33N 51°58' E 001°18'0 0.0
2016-May-23 13:33N 51°58' E 001°18'0 0.0
2016-May-23 12:32N 51°58' E 001°18'0 0.0
2016-May-23 11:32N 51°58' E 001°18'0 0.0
2016-May-23 10:32N 51°58' E 001°18'0 0.0
2016-May-23 09:33N 51°58' E 001°18'0 0.0
2016-May-23 08:33N 51°58' E 001°18'0 0.0
2016-May-23 07:33N 51°58' E 001°18'0 0.0
2016-May-23 06:33N 51°58' E 001°18'0 0.0
2016-May-23 05:33N 51°58' E 001°18'0 0.0
2016-May-23 04:33N 51°58' E 001°18'0 0.0
2016-May-23 03:33N 51°58' E 001°18'0 0.0
2016-May-23 02:34N 51°58' E 001°18'0 0.0
2016-May-23 01:34N 51°58' E 001°18'0 0.0
2016-May-23 00:34N 51°58' E 001°18'0 0.0
2016-May-22 23:33N 51°58' E 001°18'0 0.0
2016-May-22 22:34N 51°58' E 001°18'0 0.0
2016-May-22 21:34N 51°58' E 001°18'0 0.0
2016-May-22 20:33N 51°58' E 001°18'0 0.0
2016-May-22 19:34N 51°58' E 001°18'0 0.0
2016-May-22 18:34N 51°58' E 001°18'0 0.0
2016-May-22 17:33N 51°58' E 001°18'6 5.8
2016-May-22 16:33N 51°56' E 001°27'1110.6
2016-May-22 15:33N 51°52' E 001°43'4 3.8
2016-May-22 14:34N 51°50' E 001°49'1616.4
2016-May-22 13:34N 51°34' E 001°52'1414.0
2016-May-22 12:34N 51°21' E 001°59'1717.0
2016-May-22 11:34N 51°08' E 001°42'1716.7
2016-May-22 10:34N 50°54' E 001°26'1515.3
2016-May-22 09:34N 50°40' E 001°16'2619.9
2016-May-22 08:15N 50°28' E 000°40'1521.3
2016-May-22 07:34N 50°22' E 000°18'1716.9
2016-May-22 06:34N 50°12' W 000°03'1514.7
2016-May-22 05:33N 49°58' W 000°10'1414.5
2016-May-22 04:33N 49°44' W 000°12'1313.2
2016-May-22 03:33N 49°31' W 000°05'9 9.2
2016-May-22 02:33N 49°28' E 000°08'0 0.0
2016-May-22 01:33N 49°28' E 000°08'0 0.0
2016-May-22 00:33N 49°28' E 000°08'0 0.0
2016-May-21 23:33N 49°28' E 000°08'0 0.0
2016-May-21 22:33N 49°28' E 000°08'0 0.0
2016-May-21 21:33N 49°28' E 000°08'0 0.0
2016-May-21 20:33N 49°28' E 000°08'0 0.0
2016-May-21 19:33N 49°28' E 000°08'0 0.0
2016-May-21 18:33N 49°28' E 000°08'0 0.0
2016-May-21 17:33N 49°28' E 000°08'0 0.0
2016-May-21 16:33N 49°28' E 000°08'0 0.0
2016-May-21 15:33N 49°28' E 000°08'0 0.0
2016-May-21 14:33N 49°28' E 000°08'0 0.0
2016-May-21 13:33N 49°28' E 000°08'0 0.0
2016-May-21 12:33N 49°28' E 000°08'4 4.4
2016-May-21 11:33N 49°30' E 000°02'1010.3
2016-May-21 10:33N 49°33' W 000°13'7 7.3
2016-May-21 09:33N 49°34' W 000°24'4 4.5
2016-May-21 08:33N 49°38' W 000°26'1312.7
2016-May-21 07:33N 49°46' W 000°41'1818.2
2016-May-21 06:33N 49°52' W 001°08'1818.5
2016-May-21 05:33N 49°58' W 001°35'4018.2
2016-May-21 03:20N 49°51' W 002°37'1417.8
2016-May-21 02:33N 49°46' W 002°57'1717.5
2016-May-21 01:34N 49°38' W 003°21'7017.4
2016-May-20 21:32N 49°03' W 004°54'1717.2
2016-May-20 20:34N 48°56' W 005°17'14618.2
2016-May-20 12:31N 46°50' W 007°08'46519.1
2016-May-19 12:09N 39°20' W 009°51'1220.1
2016-May-19 11:33N 39°08' W 009°50'2020.0
2016-May-19 10:33N 38°48' W 009°51'1919.2
2016-May-19 09:33N 38°30' W 009°44'2019.9
2016-May-19 08:33N 38°14' W 009°30'2019.7
2016-May-19 07:33N 37°59' W 009°13'1818.1
2016-May-19 06:33N 37°53' W 008°51'3 2.7
2016-May-19 05:33N 37°56' W 008°51'0 0.0
2016-May-19 04:33N 37°56' W 008°51'0 0.0
2016-May-19 03:33N 37°56' W 008°51'0 0.0
2016-May-19 02:33N 37°56' W 008°51'0 0.0
2016-May-19 01:33N 37°56' W 008°51'0 0.0
2016-May-19 00:33N 37°56' W 008°51'0 0.0
2016-May-18 23:33N 37°56' W 008°51'0 0.0
2016-May-18 22:33N 37°56' W 008°51'0 0.0
2016-May-18 21:33N 37°56' W 008°51'0 0.0
2016-May-18 20:33N 37°56' W 008°51'0 0.0
2016-May-18 19:33N 37°56' W 008°51'0 0.0
2016-May-18 18:33N 37°56' W 008°51'0 0.0
2016-May-18 17:34N 37°56' W 008°51'3 2.6
2016-May-18 16:33N 37°53' W 008°50'3 3.5
2016-May-18 15:33N 37°51' W 008°53'7 7.4
2016-May-18 14:33N 37°44' W 008°57'2 1.8
2016-May-18 13:33N 37°43' W 008°58'1312.9
2016-May-18 12:33N 37°31' W 009°05'1514.5
2016-May-18 11:33N 37°17' W 009°12'1514.6
2016-May-18 10:33N 37°04' W 009°19'1413.2
2016-May-18 09:29N 36°50' W 009°16'1714.4
2016-May-18 08:18N 36°41' W 008°57'1114.6
2016-May-18 07:33N 36°38' W 008°45'1514.9
2016-May-18 06:33N 36°33' W 008°27'1515.0
2016-May-18 05:33N 36°29' W 008°09'1515.0
2016-May-18 04:33N 36°24' W 007°52'1615.6
2016-May-18 03:33N 36°18' W 007°34'1615.5
2016-May-18 02:33N 36°13' W 007°15'8114.7
2016-May-17 21:04N 35°58' W 005°37'612.1
2016-May-17 20:33N 35°59' W 005°30'1111.4
2016-May-17 19:33N 36°02' W 005°16'18615.3
2016-May-17 07:22N 36°27' W 001°27'1315.6
2016-May-17 06:34N 36°28' W 001°12'1615.5
2016-May-17 05:32N 36°29' W 000°52'1515.5
2016-May-17 04:33N 36°30' W 000°33'1615.8
2016-May-17 03:34N 36°33' W 000°14'1615.7
2016-May-17 02:33N 36°36' E 000°05'1615.9
2016-May-17 01:33N 36°38' E 000°25'1615.5
2016-May-17 00:33N 36°42' E 000°44'1515.2
2016-May-16 23:34N 36°44' E 001°02'1514.9
2016-May-16 22:34N 36°47' E 001°20'1514.6
2016-May-16 21:33N 36°50' E 001°38'1514.8
2016-May-16 20:33N 36°53' E 001°56'3115.1
2016-May-16 18:29N 36°59' E 002°35'1415.1
2016-May-16 17:33N 37°01' E 002°52'38716.0
2016-May-15 17:24N 37°32' E 010°57'3215.1
2016-May-15 15:15N 37°16' E 011°33'10915.9
2016-May-15 08:22N 36°35' E 013°40'1315.7
2016-May-15 07:33N 36°32' E 013°55'1615.8
2016-May-15 06:33N 36°27' E 014°14'1616.0
2016-May-15 05:33N 36°22' E 014°33'1615.5
2016-May-15 04:33N 36°17' E 014°51'  

Dump ship's entire track history